Terminal Aerodrome Forecast
Issued by NWS

Home | Current Version | Previous Version | Text Only | Print | Product List | Glossary On
Versions: 1 2 3 4 5 6 7 8 9 10 11 12 13 14 15
000
FTUS42 KTBW 301749
TAFPIE
TAF
KPIE 301749Z 3018/3118 13010KT P6SM -RA VCTS SCT030CB BKN050
     FM302000 17007KT P6SM RA VCTS SCT015 BKN035CB
     FM310000 15005KT P6SM VCSH SCT020 OVC080
     FM310800 17010KT P6SM VCSH SCT015 OVC100
     FM311400 18014G22KT P6SM VCSH SCT025 BKN050=

USA.gov is the U.S. government's official web portal to all federal, state and local government web resources and services.